createdAt,value
2023-02-19T00:01:01.362Z,101737.44
2023-02-19T00:03:27.895Z,101728.88
2023-02-19T00:05:54.495Z,101718.06
2023-02-19T00:08:20.921Z,101724.50
2023-02-19T00:10:47.318Z,101719.94
2023-02-19T00:13:14.762Z,101720.97
2023-02-19T00:15:41.200Z,101731.78
2023-02-19T00:18:07.610Z,101729.06
2023-02-19T00:20:34.105Z,101722.84
2023-02-19T00:23:00.505Z,101732.81
2023-02-19T00:25:27.013Z,101737.38
2023-02-19T00:27:53.487Z,101735.50
2023-02-19T00:30:20.036Z,101737.19
2023-02-19T00:32:51.247Z,101738.84
2023-02-19T00:35:17.665Z,101742.59
2023-02-19T00:37:44.100Z,101739.88
2023-02-19T00:40:11.046Z,101728.44
2023-02-19T00:42:37.458Z,101736.56
2023-02-19T00:45:04.067Z,101742.16
2023-02-19T00:47:31.447Z,101737.78
2023-02-19T00:49:57.870Z,101736.97
2023-02-19T00:52:24.321Z,101744.84
2023-02-19T00:54:50.734Z,101748.38
2023-02-19T00:57:17.132Z,101740.91
2023-02-19T00:59:43.590Z,101745.28
2023-02-19T01:02:10.010Z,101741.56
2023-02-19T01:04:36.556Z,101743.22
2023-02-19T01:07:03.039Z,101748.81
2023-02-19T01:09:29.507Z,101746.94
2023-02-19T01:11:56.251Z,101749.03
2023-02-19T01:14:22.788Z,101746.94
2023-02-19T01:16:49.210Z,101754.03
2023-02-19T01:19:15.655Z,101759.44
2023-02-19T01:21:42.051Z,101756.94
2023-02-19T01:24:10.167Z,101763.16
2023-02-19T01:26:36.601Z,101769.41
2023-02-19T01:29:03.883Z,101765.22
2023-02-19T01:31:31.073Z,101774.16
2023-02-19T01:34:00.315Z,101770.84
2023-02-19T01:36:27.553Z,101773.75
2023-02-19T01:38:54.626Z,101773.09
2023-02-19T01:41:25.382Z,101774.78
2023-02-19T01:44:11.400Z,101768.94
2023-02-19T01:46:39.705Z,101780.56
2023-02-19T01:49:08.243Z,101775.53
2023-02-19T01:51:38.044Z,101771.38
2023-02-19T01:54:07.040Z,101780.50
2023-02-19T01:56:38.239Z,101773.44
2023-02-19T01:59:06.574Z,101774.69
2023-02-19T02:01:35.041Z,101772.38
2023-02-19T02:04:02.202Z,101781.72
2023-02-19T02:06:33.154Z,101767.38
2023-02-19T02:09:19.399Z,101777.34
2023-02-19T02:11:51.025Z,101782.28
2023-02-19T02:14:21.470Z,101776.88
2023-02-19T02:17:24.772Z,101784.16
2023-02-19T02:20:40.016Z,101777.91
2023-02-19T02:23:35.703Z,101778.94
2023-02-19T02:26:22.251Z,101778.94
2023-02-19T02:28:59.473Z,101782.69
2023-02-19T02:31:43.962Z,101780.19
2023-02-19T02:34:25.277Z,101785.78
2023-02-19T02:36:55.642Z,101790.34
2023-02-19T02:39:25.854Z,101787.84
2023-02-19T02:42:16.975Z,101784.31
2023-02-19T02:45:08.517Z,101793.25
2023-02-19T02:47:44.901Z,101795.09
2023-02-19T02:50:18.701Z,101806.09
2023-02-19T02:53:08.810Z,101795.94
2023-02-19T02:55:40.941Z,101805.28
2023-02-19T02:58:08.605Z,101799.03
2023-02-19T03:00:56.516Z,101799.88
2023-02-19T03:03:27.356Z,101804.44
2023-02-19T03:06:02.555Z,101807.34
2023-02-19T03:08:38.093Z,101802.78
2023-02-19T03:11:27.845Z,101805.47
2023-02-19T03:14:25.746Z,101812.91
2023-02-19T03:17:17.286Z,101815.59
2023-02-19T03:19:50.543Z,101815.22
2023-02-19T03:22:39.058Z,101816.91
2023-02-19T03:25:35.826Z,101820.63
2023-02-19T03:28:05.584Z,101827.69
2023-02-19T03:30:36.112Z,101822.31
2023-02-19T03:33:11.351Z,101824.38
2023-02-19T03:35:48.573Z,101831.63
2023-02-19T03:38:19.862Z,101826.41
2023-02-19T03:41:20.859Z,101829.97
2023-02-19T03:44:09.594Z,101828.09
2023-02-19T03:46:45.890Z,101833.50
2023-02-19T03:49:24.519Z,101837.88
2023-02-19T03:52:01.636Z,101845.13
2023-02-19T03:54:52.861Z,101845.97
2023-02-19T03:57:26.467Z,101846.78
2023-02-19T04:00:09.596Z,101853.38
2023-02-19T04:03:02.170Z,101861.69
2023-02-19T04:05:31.860Z,101866.06
2023-02-19T04:08:04.699Z,101864.84
2023-02-19T04:10:38.029Z,101858.78
2023-02-19T04:13:12.682Z,101867.28
2023-02-19T04:15:43.660Z,101873.72
2023-02-19T04:18:15.337Z,101875.78
2023-02-19T04:20:47.547Z,101880.72
2023-02-19T04:23:18.569Z,101887.16
2023-02-19T04:25:48.711Z,101891.72
2023-02-19T04:28:16.535Z,101892.75
2023-02-19T04:30:43.844Z,101889.41
2023-02-19T04:33:10.546Z,101889.56
2023-02-19T04:35:36.966Z,101896.84
2023-02-19T04:38:03.562Z,101900.56
2023-02-19T04:40:30.111Z,101906.16
2023-02-19T04:42:56.564Z,101911.75
2023-02-19T04:45:22.982Z,101918.81
2023-02-19T04:47:49.416Z,101926.91
2023-02-19T04:50:15.970Z,101925.03
2023-02-19T04:52:42.478Z,101927.53
2023-02-19T04:55:09.683Z,101931.28
2023-02-19T04:57:36.143Z,101939.38
2023-02-19T05:00:03.249Z,101945.41
2023-02-19T05:02:29.645Z,101946.09
2023-02-19T05:04:56.108Z,101946.09
2023-02-19T05:07:22.504Z,101952.88
2023-02-19T05:09:48.893Z,101951.66
2023-02-19T05:12:15.289Z,101947.47
2023-02-19T05:14:41.683Z,101949.13
2023-02-19T05:17:08.153Z,101954.53
2023-02-19T05:19:34.546Z,101957.22
2023-02-19T05:22:00.977Z,101962.63
2023-02-19T05:24:28.256Z,101967.00
2023-02-19T05:26:54.645Z,101970.09
2023-02-19T05:29:21.157Z,101965.53
2023-02-19T05:31:48.993Z,101976.50
2023-02-19T05:34:15.632Z,101976.91
2023-02-19T05:36:42.049Z,101976.91
2023-02-19T05:39:11.806Z,101974.59
2023-02-19T05:41:38.952Z,101979.97
2023-02-19T05:44:05.460Z,101973.94
2023-02-19T05:46:32.326Z,101978.50
2023-02-19T05:48:59.386Z,101982.22
2023-02-19T05:51:26.885Z,101978.00
2023-02-19T05:53:53.954Z,101980.72
2023-02-19T05:56:32.045Z,101979.69
2023-02-19T05:58:59.734Z,101980.72
2023-02-19T06:01:28.380Z,101980.03
2023-02-19T06:03:57.398Z,101986.25
2023-02-19T06:06:25.860Z,101997.94
2023-02-19T06:08:52.894Z,101995.38
2023-02-19T06:11:19.865Z,101993.53
2023-02-19T06:13:46.556Z,101995.22
2023-02-19T06:16:13.251Z,102000.63
2023-02-19T06:18:41.211Z,102007.69
2023-02-19T06:21:10.143Z,102012.41
2023-02-19T06:23:37.040Z,102024.59
2023-02-19T06:26:12.426Z,102026.66
2023-02-19T06:28:40.119Z,102032.50
2023-02-19T06:31:07.975Z,102037.25
2023-02-19T06:33:35.272Z,102039.13
2023-02-19T06:36:04.014Z,102042.00
2023-02-19T06:38:30.962Z,102043.88
2023-02-19T06:41:01.937Z,102044.25
2023-02-19T06:43:28.661Z,102050.81
2023-02-19T06:45:58.840Z,102048.31
2023-02-19T06:48:29.658Z,102053.72
2023-02-19T06:50:56.512Z,102051.03
2023-02-19T06:53:23.145Z,102064.50
2023-02-19T06:55:56.649Z,102062.00
2023-02-19T06:58:23.126Z,102068.41
2023-02-19T07:00:49.652Z,102070.47
2023-02-19T07:03:16.124Z,102072.31
2023-02-19T07:05:43.763Z,102074.00
2023-02-19T07:08:12.993Z,102089.16
2023-02-19T07:10:39.390Z,102087.66
2023-02-19T07:13:05.983Z,102090.56
2023-02-19T07:15:32.443Z,102095.94
2023-02-19T07:17:59.588Z,102095.75
2023-02-19T07:20:26.101Z,102108.41
2023-02-19T07:22:52.584Z,102103.84
2023-02-19T07:25:19.091Z,102114.66
2023-02-19T07:27:45.534Z,102118.19
2023-02-19T07:30:12.243Z,102130.00
2023-02-19T07:32:41.599Z,102126.28
2023-02-19T07:35:08.240Z,102126.72
2023-02-19T07:37:34.817Z,102127.56
2023-02-19T07:40:01.486Z,102139.00
2023-02-19T07:42:27.874Z,102136.81
2023-02-19T07:44:54.279Z,102134.94
2023-02-19T07:47:20.657Z,102130.22
2023-02-19T07:49:47.034Z,102143.50
2023-02-19T07:52:13.505Z,102143.31
2023-02-19T07:54:39.908Z,102149.38
2023-02-19T07:57:06.379Z,102144.63
2023-02-19T07:59:32.849Z,102154.41
2023-02-19T08:02:17.942Z,102153.06
2023-02-19T08:04:45.667Z,102159.63
2023-02-19T08:07:12.061Z,102169.44
2023-02-19T08:09:38.466Z,102160.31
2023-02-19T08:12:23.451Z,102172.97
2023-02-19T08:14:49.966Z,102177.34
2023-02-19T08:17:16.413Z,102181.06
2023-02-19T08:19:42.895Z,102181.91
2023-02-19T08:22:09.538Z,102188.97
2023-02-19T08:24:37.800Z,102189.81
2023-02-19T08:27:04.285Z,102183.19
2023-02-19T08:29:30.759Z,102197.53
2023-02-19T08:31:57.330Z,102206.66
2023-02-19T08:34:23.823Z,102212.88
2023-02-19T08:36:50.631Z,102212.06
2023-02-19T08:39:18.412Z,102218.47
2023-02-19T08:41:45.892Z,102218.47
2023-02-19T08:44:12.362Z,102225.53
2023-02-19T08:46:38.810Z,102230.94
2023-02-19T08:49:05.291Z,102233.81
2023-02-19T08:51:31.755Z,102241.75
2023-02-19T08:53:58.222Z,102233.00
2023-02-19T08:56:24.812Z,102229.72
2023-02-19T08:58:51.229Z,102230.94
2023-02-19T09:01:18.672Z,102225.53
2023-02-19T09:03:45.463Z,102234.66
2023-02-19T09:06:17.338Z,102233.44
2023-02-19T09:08:43.944Z,102233.53
2023-02-19T09:11:10.743Z,102218.69
2023-02-19T09:13:37.320Z,102230.03
2023-02-19T09:16:05.244Z,102237.59
2023-02-19T09:18:31.901Z,102240.03
2023-02-19T09:21:04.465Z,102256.31
2023-02-19T09:23:34.495Z,102243.50
2023-02-19T09:26:01.322Z,102254.38
2023-02-19T09:28:28.116Z,102258.56
2023-02-19T09:30:54.680Z,102262.22
2023-02-19T09:33:21.228Z,102272.91
2023-02-19T09:35:47.744Z,102283.66
2023-02-19T09:38:14.278Z,102281.47
2023-02-19T09:40:40.825Z,102290.44
2023-02-19T09:43:18.526Z,102301.41
2023-02-19T09:45:45.093Z,102303.78
2023-02-19T09:48:12.140Z,102308.81
2023-02-19T09:50:47.755Z,102317.28
2023-02-19T09:53:41.053Z,102321.75
2023-02-19T09:56:08.425Z,102325.47
2023-02-19T09:58:41.904Z,102334.31
2023-02-19T10:01:12.051Z,102330.13
2023-02-19T10:03:41.333Z,102341.84
2023-02-19T10:06:22.554Z,102338.66
2023-02-19T10:08:55.571Z,102351.31
2023-02-19T10:11:25.720Z,102360.81
2023-02-19T10:14:04.256Z,102376.72
2023-02-19T10:16:31.044Z,102367.91
2023-02-19T10:18:57.585Z,102377.78
2023-02-19T10:21:27.268Z,102380.66
2023-02-19T10:24:01.791Z,102393.94
2023-02-19T10:26:28.459Z,102394.25
2023-02-19T10:28:55.500Z,102400.13
2023-02-19T10:31:24.387Z,102404.69
2023-02-19T10:33:58.624Z,102408.41
2023-02-19T10:36:31.736Z,102408.06
2023-02-19T10:39:00.465Z,102415.84
2023-02-19T10:41:28.468Z,102413.13
2023-02-19T10:44:07.797Z,102412.41
2023-02-19T10:46:43.464Z,102412.03
2023-02-19T10:49:31.635Z,102413.03
2023-02-19T10:52:02.856Z,102414.72
2023-02-19T10:54:32.673Z,102423.47
2023-02-19T10:57:30.437Z,102410.63
2023-02-19T11:00:03.977Z,102413.81
2023-02-19T11:02:32.605Z,102407.84
2023-02-19T11:05:17.333Z,102398.91
2023-02-19T11:07:54.596Z,102404.44
2023-02-19T11:10:26.205Z,102393.00
2023-02-19T11:12:55.252Z,102408.88
2023-02-19T11:15:31.708Z,102412.22
2023-02-19T11:18:00.321Z,102413.31
2023-02-19T11:20:28.658Z,102414.75
2023-02-19T11:23:02.952Z,102416.59
2023-02-19T11:25:29.983Z,102420.88
2023-02-19T11:28:07.939Z,102420.94
2023-02-19T11:30:44.978Z,102426.09
2023-02-19T11:33:17.595Z,102425.94
2023-02-19T11:35:45.345Z,102422.06
2023-02-19T11:38:14.039Z,102424.41
2023-02-19T11:41:07.802Z,102424.22
2023-02-19T11:43:47.743Z,102433.34
2023-02-19T11:46:19.491Z,102440.13
2023-02-19T11:49:33.250Z,102447.63
2023-02-19T11:52:07.485Z,102446.22
2023-02-19T11:54:48.529Z,102438.72
2023-02-19T11:57:21.574Z,102428.38
2023-02-19T12:00:02.253Z,102433.44
2023-02-19T12:03:12.895Z,102436.66
2023-02-19T12:05:42.309Z,102438.53
2023-02-19T12:08:46.696Z,102448.16
2023-02-19T12:11:15.865Z,102436.72
2023-02-19T12:14:12.757Z,102442.94
2023-02-19T12:16:47.817Z,102440.44
2023-02-19T12:19:35.747Z,102447.47
2023-02-19T12:22:38.493Z,102452.22
2023-02-19T12:25:23.750Z,102448.16
2023-02-19T12:28:11.277Z,102449.50
2023-02-19T12:31:05.045Z,102444.63
2023-02-19T12:33:55.818Z,102445.16
2023-02-19T12:36:47.081Z,102442.78
2023-02-19T12:39:28.566Z,102458.63
2023-02-19T12:41:57.878Z,102467.03
2023-02-19T12:44:34.677Z,102468.38
2023-02-19T12:47:03.911Z,102468.38
2023-02-19T12:49:36.350Z,102472.91
2023-02-19T12:52:43.040Z,102479.47
2023-02-19T12:55:24.764Z,102491.56
2023-02-19T12:57:52.882Z,102487.50
2023-02-19T13:00:39.365Z,102492.38
2023-02-19T13:03:37.362Z,102498.56
2023-02-19T13:06:17.852Z,102505.47
2023-02-19T13:09:05.994Z,102499.63
2023-02-19T13:11:49.194Z,102503.47
2023-02-19T13:14:27.151Z,102513.91
2023-02-19T13:17:00.334Z,102515.25
2023-02-19T13:19:27.015Z,102519.13
2023-02-19T13:22:24.909Z,102530.22
2023-02-19T13:24:52.136Z,102537.31
2023-02-19T13:27:44.971Z,102541.34
2023-02-19T13:30:32.629Z,102538.81
2023-02-19T13:33:13.971Z,102536.63
2023-02-19T13:35:49.566Z,102535.91
2023-02-19T13:38:16.525Z,102538.94
2023-02-19T13:40:54.009Z,102546.66
2023-02-19T13:43:25.911Z,102544.66
2023-02-19T13:45:59.112Z,102536.06
2023-02-19T13:48:32.964Z,102548.72
2023-02-19T13:51:21.570Z,102552.94
2023-02-19T13:53:48.175Z,102560.50
2023-02-19T13:56:29.916Z,102556.81
2023-02-19T13:59:34.930Z,102547.25
2023-02-19T14:02:01.348Z,102551.34
2023-02-19T14:04:50.221Z,102554.56
2023-02-19T14:07:16.581Z,102558.75
2023-02-19T14:09:43.917Z,102559.63
2023-02-19T14:12:10.339Z,102561.31
2023-02-19T14:14:38.713Z,102565.72
2023-02-19T14:17:37.268Z,102565.53
2023-02-19T14:20:16.936Z,102565.00
2023-02-19T14:22:52.697Z,102554.56
2023-02-19T14:25:30.092Z,102557.63
2023-02-19T14:28:05.891Z,102554.25
2023-02-19T14:30:34.685Z,102551.53
2023-02-19T14:33:10.767Z,102549.84
2023-02-19T14:35:42.663Z,102543.25
2023-02-19T14:38:24.747Z,102537.69
2023-02-19T14:40:53.163Z,102536.31
2023-02-19T14:43:22.702Z,102526.19
2023-02-19T14:46:00.266Z,102525.69
2023-02-19T14:48:33.001Z,102519.78
2023-02-19T14:51:06.872Z,102516.75
2023-02-19T14:53:39.332Z,102518.41
2023-02-19T14:56:16.203Z,102516.38
2023-02-19T14:58:42.813Z,102524.84
2023-02-19T15:01:25.777Z,102509.34
2023-02-19T15:03:55.213Z,102493.84
2023-02-19T15:06:24.371Z,102501.75
2023-02-19T15:08:54.809Z,102503.97
2023-02-19T15:11:23.501Z,102504.94
2023-02-19T15:14:00.711Z,102504.63
2023-02-19T15:16:29.215Z,102516.25
2023-02-19T15:18:58.472Z,102517.94
2023-02-19T15:21:28.859Z,102526.50
2023-02-19T15:23:58.370Z,102538.84
2023-02-19T15:26:42.689Z,102546.41
2023-02-19T15:29:11.900Z,102554.69
2023-02-19T15:31:48.363Z,102559.94
2023-02-19T15:34:19.910Z,102569.03
2023-02-19T15:36:47.076Z,102565.34
2023-02-19T15:39:22.823Z,102569.41
2023-02-19T15:42:00.204Z,102574.81
2023-02-19T15:44:39.838Z,102572.75
2023-02-19T15:47:41.553Z,102577.81
2023-02-19T15:50:15.298Z,102573.63
2023-02-19T15:52:48.072Z,102570.44
2023-02-19T15:55:27.783Z,102567.75
2023-02-19T15:58:13.921Z,102553.22
2023-02-19T16:00:47.108Z,102566.38
2023-02-19T16:03:19.075Z,102569.06
2023-02-19T16:05:46.233Z,102576.63
2023-02-19T16:08:12.584Z,102582.19
2023-02-19T16:10:39.538Z,102588.94
2023-02-19T16:13:08.204Z,102591.78
2023-02-19T16:15:35.784Z,102605.75
2023-02-19T16:18:02.415Z,102605.22
2023-02-19T16:20:32.865Z,102601.19
2023-02-19T16:23:03.723Z,102608.91
2023-02-19T16:25:42.224Z,102607.56
2023-02-19T16:28:22.078Z,102613.78
2023-02-19T16:30:59.862Z,102608.72
2023-02-19T16:33:41.235Z,102613.22
2023-02-19T16:36:29.764Z,102614.41
2023-02-19T16:38:59.265Z,102616.41
2023-02-19T16:41:25.804Z,102618.28
2023-02-19T16:43:52.260Z,102615.91
2023-02-19T16:46:18.846Z,102619.09
2023-02-19T16:48:45.817Z,102610.66
2023-02-19T16:51:21.675Z,102631.34
2023-02-19T16:53:48.110Z,102635.19
2023-02-19T16:56:18.563Z,102640.91
2023-02-19T16:58:45.014Z,102636.53
2023-02-19T17:01:11.947Z,102637.72
2023-02-19T17:03:39.479Z,102627.94
2023-02-19T17:06:06.241Z,102617.34
2023-02-19T17:08:38.545Z,102613.94
2023-02-19T17:11:10.228Z,102605.88
2023-02-19T17:13:36.982Z,102614.28
2023-02-19T17:16:03.602Z,102617.97
2023-02-19T17:18:30.154Z,102625.38
2023-02-19T17:21:10.404Z,102621.66
2023-02-19T17:23:36.947Z,102629.91
2023-02-19T17:26:03.595Z,102635.63
2023-02-19T17:28:30.136Z,102634.09
2023-02-19T17:30:57.001Z,102636.78
2023-02-19T17:33:23.561Z,102635.94
2023-02-19T17:35:49.959Z,102637.47
2023-02-19T17:38:16.364Z,102642.31
2023-02-19T17:40:42.818Z,102647.84
2023-02-19T17:43:09.265Z,102659.59
2023-02-19T17:45:35.739Z,102658.75
2023-02-19T17:48:02.635Z,102661.78
2023-02-19T17:50:31.954Z,102662.94
2023-02-19T17:52:58.856Z,102673.69
2023-02-19T17:55:26.239Z,102676.56
2023-02-19T17:57:53.091Z,102676.56
2023-02-19T18:00:23.693Z,102683.78
2023-02-19T18:02:50.178Z,102675.34
2023-02-19T18:05:17.212Z,102669.97
2023-02-19T18:07:44.174Z,102670.97
2023-02-19T18:10:11.181Z,102668.28
2023-02-19T18:12:38.453Z,102661.91
2023-02-19T18:15:05.527Z,102660.22
2023-02-19T18:17:32.039Z,102643.38
2023-02-19T18:19:58.469Z,102655.81
2023-02-19T18:22:24.929Z,102653.13
2023-02-19T18:24:53.317Z,102636.97
2023-02-19T18:27:20.664Z,102648.59
2023-02-19T18:29:56.460Z,102637.97
2023-02-19T18:32:25.012Z,102636.28
2023-02-19T18:34:54.186Z,102644.00
2023-02-19T18:37:21.297Z,102648.72
2023-02-19T18:39:47.949Z,102642.66
2023-02-19T18:42:15.410Z,102643.94
2023-02-19T18:44:42.365Z,102651.81
2023-02-19T18:47:11.373Z,102650.28
2023-02-19T18:49:38.193Z,102643.81
2023-02-19T18:52:05.244Z,102642.09
2023-02-19T18:54:32.278Z,102648.19
2023-02-19T18:57:00.638Z,102657.03
2023-02-19T18:59:27.029Z,102643.53
2023-02-19T19:01:53.480Z,102649.53
2023-02-19T19:04:19.959Z,102645.06
2023-02-19T19:06:46.513Z,102639.31
2023-02-19T19:09:13.029Z,102646.00
2023-02-19T19:11:40.600Z,102654.63
2023-02-19T19:14:08.304Z,102657.25
2023-02-19T19:16:34.719Z,102653.63
2023-02-19T19:19:01.539Z,102659.44
2023-02-19T19:21:28.009Z,102658.38
2023-02-19T19:23:54.478Z,102664.16
2023-02-19T19:26:20.883Z,102673.66
2023-02-19T19:28:47.363Z,102671.44
2023-02-19T19:31:16.057Z,102679.91
2023-02-19T19:33:43.706Z,102683.91
2023-02-19T19:36:11.442Z,102679.81
2023-02-19T19:38:38.600Z,102685.34
2023-02-19T19:41:05.457Z,102675.06
2023-02-19T19:43:33.037Z,102678.00
2023-02-19T19:45:59.913Z,102673.78
2023-02-19T19:48:27.644Z,102678.63
2023-02-19T19:50:54.666Z,102679.75
2023-02-19T19:53:21.095Z,102678.06
2023-02-19T19:55:47.476Z,102670.59
2023-02-19T19:58:13.874Z,102669.91
2023-02-19T20:00:40.335Z,102664.00
2023-02-19T20:03:07.047Z,102662.31
2023-02-19T20:05:33.543Z,102661.75
2023-02-19T20:07:59.991Z,102668.25
2023-02-19T20:10:26.445Z,102665.16
2023-02-19T20:12:52.959Z,102670.81
2023-02-19T20:15:21.868Z,102661.78
2023-02-19T20:17:48.897Z,102664.59
2023-02-19T20:20:18.772Z,102662.91
2023-02-19T20:22:45.278Z,102656.16
2023-02-19T20:25:11.849Z,102658.00
2023-02-19T20:27:38.424Z,102646.56
2023-02-19T20:30:06.026Z,102653.03
2023-02-19T20:32:32.645Z,102649.81
2023-02-19T20:34:59.108Z,102661.53
2023-02-19T20:37:25.504Z,102657.16
2023-02-19T20:39:51.939Z,102661.81
2023-02-19T20:42:18.752Z,102654.78
2023-02-19T20:44:45.555Z,102663.09
2023-02-19T20:47:12.304Z,102658.16
2023-02-19T20:49:38.838Z,102663.50
2023-02-19T20:52:06.950Z,102662.97
2023-02-19T20:54:36.318Z,102650.56
2023-02-19T20:57:05.268Z,102657.19
2023-02-19T20:59:35.401Z,102655.50
2023-02-19T21:02:04.195Z,102654.06
2023-02-19T21:04:30.709Z,102642.66
2023-02-19T21:06:57.317Z,102640.28
2023-02-19T21:09:23.973Z,102635.91
2023-02-19T21:11:51.049Z,102618.97
2023-02-19T21:14:18.133Z,102615.75
2023-02-19T21:16:44.669Z,102607.72
2023-02-19T21:19:11.218Z,102607.72
2023-02-19T21:21:40.379Z,102611.38
2023-02-19T21:24:09.233Z,102618.59
2023-02-19T21:26:38.487Z,102622.09
2023-02-19T21:29:06.363Z,102621.56
2023-02-19T21:31:37.054Z,102613.63
2023-02-19T21:34:04.254Z,102608.28
2023-02-19T21:36:30.712Z,102611.25
2023-02-19T21:38:57.225Z,102613.06
2023-02-19T21:41:28.475Z,102623.78
2023-02-19T21:43:55.528Z,102635.34
2023-02-19T21:46:23.193Z,102629.28
2023-02-19T21:48:50.639Z,102625.75
2023-02-19T21:51:18.531Z,102631.28
2023-02-19T21:53:46.197Z,102626.91
2023-02-19T21:56:22.437Z,102630.56
2023-02-19T21:58:49.050Z,102624.94
2023-02-19T22:01:23.352Z,102632.25
2023-02-19T22:03:49.898Z,102627.06
2023-02-19T22:06:17.056Z,102623.53
2023-02-19T22:08:44.049Z,102619.84
2023-02-19T22:11:13.817Z,102616.47
2023-02-19T22:13:40.458Z,102620.16
2023-02-19T22:16:07.103Z,102627.19
2023-02-19T22:18:34.508Z,102623.53
2023-02-19T22:21:02.589Z,102625.06
2023-02-19T22:23:29.002Z,102612.53
2023-02-19T22:25:55.542Z,102610.53
2023-02-19T22:28:22.038Z,102604.34
2023-02-19T22:30:48.489Z,102613.63
2023-02-19T22:33:15.024Z,102597.56
2023-02-19T22:35:41.676Z,102608.00
2023-02-19T22:38:08.124Z,102597.16
2023-02-19T22:40:34.517Z,102600.38
2023-02-19T22:43:00.989Z,102595.03
2023-02-19T22:45:27.518Z,102596.56
2023-02-19T22:47:55.637Z,102596.13
2023-02-19T22:50:23.115Z,102603.47
2023-02-19T22:52:50.149Z,102587.38
2023-02-19T22:55:17.404Z,102594.44
2023-02-19T22:57:43.856Z,102587.09
2023-02-19T23:00:20.970Z,102586.97
2023-02-19T23:02:48.485Z,102575.41
2023-02-19T23:05:15.886Z,102578.50
2023-02-19T23:07:43.940Z,102566.78
2023-02-19T23:10:12.377Z,102562.28
2023-02-19T23:12:39.575Z,102563.66
2023-02-19T23:15:07.324Z,102555.47
2023-02-19T23:17:33.850Z,102556.91
2023-02-19T23:20:01.475Z,102565.63
2023-02-19T23:22:28.402Z,102557.97
2023-02-19T23:24:54.917Z,102547.97
2023-02-19T23:27:24.014Z,102557.38
2023-02-19T23:29:50.521Z,102575.72
2023-02-19T23:32:20.755Z,102566.41
2023-02-19T23:34:48.183Z,102572.28
2023-02-19T23:37:14.919Z,102573.69
2023-02-19T23:39:41.316Z,102581.47
2023-02-19T23:42:07.744Z,102579.31
2023-02-19T23:44:34.201Z,102574.50
2023-02-19T23:47:00.629Z,102572.50
2023-02-19T23:49:27.078Z,102560.63
2023-02-19T23:51:53.500Z,102554.84
2023-02-19T23:54:19.923Z,102542.13
2023-02-19T23:56:46.321Z,102534.75
2023-02-19T23:59:13.195Z,102532.94
